Time;durP1;ratioP1;P1;durP2;ratioP2;P2;SDS_P1;SDS_P2;PMS_P1;PMS_P2;Temp;Humidity;BMP_temperature;BMP_pressure;BME280_temperature;BME280_humidity;BME280_pressure;Samples;Min_cycle;Max_cycle;Signal;HPM_P1;HPM_P2
2023/02/15 00:01:33;;;;;;;8.10;6.30;;;;;;;;;;5074075;28;20207;-80
2023/02/15 00:04:02;;;;;;;6.45;5.43;;;;;;;;;;5073870;28;20234;-81
2023/02/15 00:06:30;;;;;;;5.10;4.57;;;;;;;;;;5074050;28;20231;-79
2023/02/15 00:08:58;;;;;;;6.75;5.75;;;;;;;;;;5073150;28;20225;-81
2023/02/15 00:14:22;;;;;;;8.27;6.05;;;;;;;;;;5090274;27;20994;-81
2023/02/15 00:16:51;;;;;;;8.60;7.20;;;;;;;;;;5090580;28;20702;-80
2023/02/15 00:19:21;;;;;;;9.63;7.20;;;;;;;;;;5090474;28;20308;-81
2023/02/15 00:21:49;;;;;;;7.85;7.05;;;;;;;;;;5090956;28;20204;-81
2023/02/15 00:24:19;;;;;;;8.43;6.95;;;;;;;;;;5091194;28;20692;-81
2023/02/15 00:26:47;;;;;;;7.85;7.10;;;;;;;;;;5091179;28;20227;-80
2023/02/15 00:29:16;;;;;;;8.93;8.05;;;;;;;;;;5090644;28;20217;-81
2023/02/15 00:31:45;;;;;;;9.88;7.93;;;;;;;;;;5078513;28;20205;-81
2023/02/15 00:34:16;;;;;;;8.27;6.90;;;;;;;;;;5070969;28;20224;-81
2023/02/15 00:36:44;;;;;;;6.68;5.80;;;;;;;;;;5070924;28;20201;-81
2023/02/15 00:39:12;;;;;;;9.10;7.47;;;;;;;;;;5069237;28;20235;-81
2023/02/15 00:41:39;;;;;;;10.60;7.93;;;;;;;;;;5070176;28;20201;-81
2023/02/15 00:44:09;;;;;;;10.35;7.88;;;;;;;;;;5070037;28;20207;-81
2023/02/15 00:46:36;;;;;;;7.93;6.82;;;;;;;;;;5070646;28;20616;-81
2023/02/15 00:49:06;;;;;;;7.80;6.47;;;;;;;;;;5069871;28;20311;-80
2023/02/15 00:51:33;;;;;;;8.15;6.28;;;;;;;;;;5070344;28;20209;-81
2023/02/15 00:54:01;;;;;;;7.10;6.38;;;;;;;;;;5069976;28;20598;-79
2023/02/15 00:56:29;;;;;;;7.15;6.45;;;;;;;;;;5070141;28;20645;-80
2023/02/15 00:58:56;;;;;;;6.45;5.82;;;;;;;;;;5068813;28;20216;-80
2023/02/15 01:01:25;;;;;;;7.88;7.07;;;;;;;;;;5069915;28;20247;-81
2023/02/15 01:03:53;;;;;;;5.22;4.72;;;;;;;;;;5069577;28;20577;-81
2023/02/15 01:06:22;;;;;;;6.97;5.90;;;;;;;;;;5069117;28;20297;-81
2023/02/15 01:08:49;;;;;;;5.20;4.68;;;;;;;;;;5069696;28;20235;-81
2023/02/15 01:11:21;;;;;;;7.47;6.68;;;;;;;;;;5069784;28;20297;-82
2023/02/15 01:13:50;;;;;;;8.55;7.68;;;;;;;;;;5069191;28;20232;-81
2023/02/15 01:16:18;;;;;;;8.13;6.35;;;;;;;;;;5069745;28;20308;-80
2023/02/15 01:18:45;;;;;;;8.10;7.28;;;;;;;;;;5072456;28;20312;-80
2023/02/15 01:21:14;;;;;;;7.10;6.05;;;;;;;;;;5080088;28;20308;-78
2023/02/15 01:23:43;;;;;;;11.02;8.27;;;;;;;;;;5079729;28;20205;-79
2023/02/15 01:26:12;;;;;;;8.18;7.22;;;;;;;;;;5070190;28;20238;-77
2023/02/15 01:28:39;;;;;;;8.88;6.80;;;;;;;;;;5067278;28;20221;-78
2023/02/15 01:31:08;;;;;;;8.98;7.60;;;;;;;;;;5069294;28;20225;-77
2023/02/15 01:33:37;;;;;;;5.78;5.18;;;;;;;;;;5058946;28;20222;-82
2023/02/15 01:36:05;;;;;;;5.65;5.03;;;;;;;;;;5057217;28;20260;-82
2023/02/15 01:38:33;;;;;;;11.10;8.13;;;;;;;;;;5055365;28;20300;-82
2023/02/15 01:43:45;;;;;;;6.45;5.82;;;;;;;;;;5055372;28;20194;-81
2023/02/15 01:46:15;;;;;;;5.15;4.65;;;;;;;;;;5055868;28;20206;-81
2023/02/15 01:48:46;;;;;;;6.13;5.53;;;;;;;;;;5055261;28;20741;-81
2023/02/15 01:51:15;;;;;;;7.10;6.03;;;;;;;;;;5055448;28;20216;-81
2023/02/15 01:53:46;;;;;;;6.78;6.07;;;;;;;;;;5055346;28;20237;-81
2023/02/15 01:56:18;;;;;;;6.68;5.90;;;;;;;;;;5056379;28;20219;-81
2023/02/15 01:58:46;;;;;;;8.63;6.65;;;;;;;;;;5066404;28;20653;-81
2023/02/15 02:01:14;;;;;;;6.00;5.13;;;;;;;;;;5066919;28;20666;-82
2023/02/15 02:03:50;;;;;;;5.28;4.78;;;;;;;;;;5055048;28;20757;-81
2023/02/15 02:06:18;;;;;;;5.18;4.22;;;;;;;;;;5055214;28;20749;-80
2023/02/15 02:08:46;;;;;;;5.85;5.25;;;;;;;;;;5054255;28;20263;-81
2023/02/15 02:11:16;;;;;;;6.30;5.70;;;;;;;;;;5055118;28;20205;-82
2023/02/15 02:13:45;;;;;;;7.65;6.85;;;;;;;;;;5054235;28;20228;-81
2023/02/15 02:16:19;;;;;;;7.00;6.30;;;;;;;;;;5054805;28;20567;-81
2023/02/15 02:18:59;;;;;;;6.43;5.82;;;;;;;;;;5068244;23;20227;-87
2023/02/15 02:22:34;;;;;;;6.57;5.28;;;;;;;;;;5079485;28;20289;-87
2023/02/15 02:25:58;;;;;;;6.32;5.28;;;;;;;;;;4998140;28;20702;-86
2023/02/15 02:29:06;;;;;;;8.18;7.38;;;;;;;;;;4958480;29;20221;-85
2023/02/15 02:31:51;;;;;;;5.82;5.25;;;;;;;;;;5059473;28;20277;-85
2023/02/15 02:34:26;;;;;;;8.98;6.78;;;;;;;;;;5060344;28;20225;-86
2023/02/15 02:37:00;;;;;;;5.78;5.22;;;;;;;;;;5060255;28;20272;-86
2023/02/15 02:39:34;;;;;;;6.28;5.68;;;;;;;;;;5060110;28;20217;-86
2023/02/15 02:42:08;;;;;;;5.40;4.38;;;;;;;;;;5060687;28;20270;-86
2023/02/15 02:44:43;;;;;;;4.90;4.43;;;;;;;;;;5060605;28;20281;-88
2023/02/15 02:47:15;;;;;;;6.47;5.75;;;;;;;;;;5060517;28;20217;-86
2023/02/15 02:49:45;;;;;;;6.22;5.63;;;;;;;;;;5060283;28;20677;-86
2023/02/15 02:52:40;;;;;;;9.55;7.88;;;;;;;;;;5059841;28;20204;-87
2023/02/15 02:55:13;;;;;;;7.55;6.43;;;;;;;;;;5059902;28;20227;-86
2023/02/15 02:57:48;;;;;;;9.55;7.38;;;;;;;;;;5059584;28;20313;-87
2023/02/15 03:00:17;;;;;;;7.40;6.63;;;;;;;;;;5059402;28;20252;-86
2023/02/15 03:02:47;;;;;;;6.10;5.50;;;;;;;;;;5059451;28;20229;-87
2023/02/15 03:05:19;;;;;;;7.60;6.35;;;;;;;;;;5059243;28;20633;-86
2023/02/15 03:07:50;;;;;;;7.22;6.18;;;;;;;;;;5059017;28;20248;-85
2023/02/15 03:10:21;;;;;;;7.25;6.40;;;;;;;;;;5058959;28;20243;-87
2023/02/15 03:12:49;;;;;;;10.25;7.32;;;;;;;;;;5058212;28;20273;-87
2023/02/15 03:15:19;;;;;;;6.85;5.97;;;;;;;;;;5056923;28;20249;-87
2023/02/15 03:17:51;;;;;;;5.78;5.13;;;;;;;;;;5056537;28;20305;-87
2023/02/15 03:20:25;;;;;;;7.53;6.15;;;;;;;;;;5056436;28;20236;-87
2023/02/15 03:22:55;;;;;;;7.50;6.70;;;;;;;;;;5057457;28;20224;-87
2023/02/15 03:25:25;;;;;;;7.10;6.25;;;;;;;;;;5057547;28;20617;-86
2023/02/15 03:28:00;;;;;;;9.20;6.13;;;;;;;;;;5057561;28;20309;-87
2023/02/15 03:30:28;;;;;;;7.38;5.72;;;;;;;;;;5056730;28;20628;-87
2023/02/15 03:32:56;;;;;;;5.65;5.05;;;;;;;;;;5039032;28;20237;-87
2023/02/15 03:35:27;;;;;;;7.32;6.63;;;;;;;;;;5037756;28;20249;-87
2023/02/15 03:37:58;;;;;;;6.65;5.95;;;;;;;;;;5037196;28;20329;-87
2023/02/15 03:43:20;;;;;;;5.78;5.05;;;;;;;;;;5038059;28;20189;-88
2023/02/15 03:45:55;;;;;;;5.78;4.50;;;;;;;;;;5037639;28;20202;-87
2023/02/15 03:48:28;;;;;;;4.13;3.72;;;;;;;;;;5037182;28;20228;-88
2023/02/15 03:53:48;;;;;;;5.10;4.60;;;;;;;;;;5037242;28;20189;-87
2023/02/15 03:56:15;;;;;;;5.07;4.65;;;;;;;;;;5037669;28;20257;-87
2023/02/15 04:04:20;;;;;;;4.35;3.95;;;;;;;;;;5057723;28;20548;-87
2023/02/15 04:06:49;;;;;;;6.32;5.47;;;;;;;;;;5056545;28;20245;-87
2023/02/15 04:12:02;;;;;;;6.20;5.60;;;;;;;;;;5057305;28;20239;-86
2023/02/15 04:17:14;;;;;;;4.18;3.75;;;;;;;;;;5057499;28;20585;-86
2023/02/15 04:25:15;;;;;;;5.95;5.35;;;;;;;;;;5056867;28;20185;-86
2023/02/15 04:27:45;;;;;;;5.85;4.57;;;;;;;;;;5056117;28;20290;-87
2023/02/15 04:30:15;;;;;;;4.50;4.07;;;;;;;;;;5056268;28;20257;-86
2023/02/15 04:32:42;;;;;;;5.35;4.72;;;;;;;;;;5056503;28;20190;-86
2023/02/15 04:35:11;;;;;;;5.43;4.90;;;;;;;;;;5056619;28;20221;-86
2023/02/15 04:37:59;;;;;;;4.88;4.38;;;;;;;;;;5056138;28;20222;-87
2023/02/15 04:40:27;;;;;;;4.38;3.88;;;;;;;;;;5056564;28;20208;-85
2023/02/15 04:42:55;;;;;;;4.00;3.60;;;;;;;;;;5056724;28;20265;-85
2023/02/15 04:45:22;;;;;;;4.28;3.88;;;;;;;;;;5056425;28;20260;-87
2023/02/15 04:47:50;;;;;;;5.63;5.13;;;;;;;;;;5054785;28;20309;-86
2023/02/15 04:50:18;;;;;;;4.47;4.03;;;;;;;;;;5056043;28;20244;-87
2023/02/15 04:52:47;;;;;;;4.43;3.70;;;;;;;;;;5056221;28;20627;-87
2023/02/15 04:55:14;;;;;;;3.63;3.33;;;;;;;;;;5056493;28;20253;-87
2023/02/15 04:57:42;;;;;;;3.60;3.30;;;;;;;;;;5057008;28;20225;-87
2023/02/15 05:00:11;;;;;;;4.88;4.47;;;;;;;;;;5058614;28;20732;-87
2023/02/15 05:02:38;;;;;;;3.90;3.42;;;;;;;;;;5060760;28;20206;-87
2023/02/15 05:05:09;;;;;;;3.30;3.00;;;;;;;;;;5060403;28;20718;-87
2023/02/15 05:07:36;;;;;;;4.22;3.83;;;;;;;;;;5060215;28;20694;-87
2023/02/15 05:10:07;;;;;;;4.20;3.90;;;;;;;;;;5059009;28;20280;-87
2023/02/15 05:12:35;;;;;;;3.53;3.22;;;;;;;;;;5095577;22;20285;-89
2023/02/15 05:15:03;;;;;;;4.30;3.90;;;;;;;;;;5059986;28;20565;-89
2023/02/15 05:17:31;;;;;;;4.00;3.63;;;;;;;;;;5060916;28;20588;-87
2023/02/15 05:19:59;;;;;;;4.47;4.07;;;;;;;;;;5060892;28;20236;-90
2023/02/15 05:22:27;;;;;;;6.53;5.53;;;;;;;;;;5061412;28;20226;-88
2023/02/15 05:30:34;;;;;;;6.38;5.43;;;;;;;;;;5041246;28;20190;-87
2023/02/15 05:33:02;;;;;;;5.60;4.93;;;;;;;;;;5062057;28;20249;-88
2023/02/15 05:35:30;;;;;;;4.55;4.13;;;;;;;;;;5062442;28;20221;-89
2023/02/15 05:37:58;;;;;;;4.22;3.92;;;;;;;;;;5062980;28;20240;-88
2023/02/15 05:40:26;;;;;;;6.97;6.15;;;;;;;;;;5061623;28;20293;-88
2023/02/15 05:42:55;;;;;;;5.07;4.57;;;;;;;;;;5061290;28;20221;-88
2023/02/15 05:45:23;;;;;;;6.25;5.10;;;;;;;;;;5061184;28;20233;-89
2023/02/15 05:47:50;;;;;;;6.75;6.05;;;;;;;;;;5060915;28;20232;-87
2023/02/15 05:50:18;;;;;;;6.30;5.30;;;;;;;;;;5061076;28;20227;-89
2023/02/15 05:52:45;;;;;;;6.35;5.10;;;;;;;;;;5060831;28;20249;-89
2023/02/15 05:55:13;;;;;;;6.22;5.63;;;;;;;;;;5059568;28;20229;-87
2023/02/15 05:57:40;;;;;;;4.28;3.45;;;;;;;;;;5059375;28;20247;-88
2023/02/15 06:00:11;;;;;;;6.55;4.78;;;;;;;;;;5059634;28;20201;-89
2023/02/15 06:02:39;;;;;;;5.57;4.97;;;;;;;;;;5059331;28;20217;-87
2023/02/15 06:05:09;;;;;;;4.75;4.28;;;;;;;;;;5058891;28;20569;-88
2023/02/15 06:07:36;;;;;;;6.15;4.10;;;;;;;;;;5057761;28;20627;-88
2023/02/15 06:10:05;;;;;;;6.15;4.68;;;;;;;;;;5059808;28;20312;-87
2023/02/15 06:12:32;;;;;;;5.03;4.50;;;;;;;;;;5059681;28;20253;-88
2023/02/15 06:15:00;;;;;;;5.15;4.13;;;;;;;;;;5060085;28;20236;-88
2023/02/15 06:17:29;;;;;;;5.00;4.13;;;;;;;;;;5058830;28;20217;-89
2023/02/15 06:19:56;;;;;;;5.88;4.63;;;;;;;;;;5059858;28;20240;-89
2023/02/15 06:22:24;;;;;;;6.45;5.32;;;;;;;;;;5059675;28;20228;-88
2023/02/15 06:24:51;;;;;;;6.68;4.85;;;;;;;;;;5060014;28;20268;-89
2023/02/15 06:27:19;;;;;;;5.32;3.72;;;;;;;;;;5059519;28;20635;-89
2023/02/15 06:29:46;;;;;;;6.90;5.32;;;;;;;;;;5059297;28;20263;-88
2023/02/15 06:32:14;;;;;;;6.68;6.07;;;;;;;;;;5058782;28;20237;-88
2023/02/15 06:34:43;;;;;;;8.00;5.70;;;;;;;;;;5060330;28;20216;-88
2023/02/15 06:37:11;;;;;;;6.32;5.63;;;;;;;;;;5060315;28;20308;-89
2023/02/15 06:39:38;;;;;;;7.10;5.53;;;;;;;;;;5060658;28;20285;-87
2023/02/15 06:42:07;;;;;;;5.70;5.00;;;;;;;;;;5059931;28;20233;-88
2023/02/15 06:44:34;;;;;;;6.35;4.65;;;;;;;;;;5057449;28;20230;-87
2023/02/15 06:47:02;;;;;;;6.30;5.70;;;;;;;;;;5057288;28;20194;-87
2023/02/15 06:49:29;;;;;;;7.43;6.30;;;;;;;;;;5058179;28;20260;-86
2023/02/15 06:51:58;;;;;;;6.15;5.50;;;;;;;;;;5057308;28;20239;-88
2023/02/15 06:54:32;;;;;;;8.63;6.22;;;;;;;;;;5056679;28;20701;-88
2023/02/15 06:56:59;;;;;;;7.63;5.47;;;;;;;;;;5059223;28;20221;-88
2023/02/15 06:59:26;;;;;;;8.40;6.20;;;;;;;;;;5054318;28;20237;-88
2023/02/15 07:01:54;;;;;;;6.75;5.78;;;;;;;;;;5054469;28;20280;-88
2023/02/15 07:04:21;;;;;;;7.15;5.43;;;;;;;;;;5054213;28;20304;-87
2023/02/15 07:06:49;;;;;;;8.63;6.65;;;;;;;;;;5053879;28;20622;-90
2023/02/15 07:09:18;;;;;;;7.32;5.72;;;;;;;;;;5053900;28;20296;-88
2023/02/15 07:14:30;;;;;;;6.93;6.18;;;;;;;;;;5054408;28;20700;-88
2023/02/15 07:16:57;;;;;;;9.27;6.43;;;;;;;;;;5053857;28;20308;-88
2023/02/15 07:19:25;;;;;;;6.45;5.22;;;;;;;;;;5054172;28;20646;-88
2023/02/15 07:21:52;;;;;;;5.70;4.35;;;;;;;;;;5053326;28;20265;-88
2023/02/15 07:24:21;;;;;;;6.10;4.85;;;;;;;;;;5054041;28;20252;-88
2023/02/15 07:26:49;;;;;;;6.93;5.28;;;;;;;;;;5053864;28;20291;-89
2023/02/15 07:29:16;;;;;;;7.32;5.63;;;;;;;;;;5053683;28;20317;-88
2023/02/15 07:31:45;;;;;;;8.15;6.10;;;;;;;;;;5053940;28;20696;-88
2023/02/15 07:34:13;;;;;;;5.47;4.32;;;;;;;;;;5054002;28;20317;-88
2023/02/15 07:36:40;;;;;;;7.03;5.85;;;;;;;;;;5053878;28;20316;-87
2023/02/15 07:39:07;;;;;;;5.10;4.25;;;;;;;;;;5053429;28;20638;-88
2023/02/15 07:41:36;;;;;;;5.10;4.30;;;;;;;;;;5053624;28;20289;-88
2023/02/15 07:44:04;;;;;;;6.75;5.68;;;;;;;;;;5053471;28;20312;-88
2023/02/15 07:46:32;;;;;;;6.07;4.88;;;;;;;;;;5053868;28;20288;-89
2023/02/15 07:48:59;;;;;;;4.90;4.32;;;;;;;;;;5053736;28;20638;-88
2023/02/15 07:51:27;;;;;;;5.57;4.95;;;;;;;;;;5054088;28;20286;-87
2023/02/15 07:53:55;;;;;;;7.28;5.85;;;;;;;;;;5053664;28;20221;-88
2023/02/15 07:56:22;;;;;;;7.28;6.45;;;;;;;;;;5053500;28;20202;-88
2023/02/15 07:58:51;;;;;;;7.82;6.38;;;;;;;;;;5054335;28;20296;-88
2023/02/15 08:01:20;;;;;;;5.75;5.05;;;;;;;;;;5054480;28;20198;-87
2023/02/15 08:04:25;;;;;;;7.70;5.93;;;;;;;;;;5054779;28;20260;-88
2023/02/15 08:06:55;;;;;;;5.75;4.90;;;;;;;;;;5054689;28;20192;-88
2023/02/15 08:09:22;;;;;;;5.85;4.55;;;;;;;;;;5054813;28;20197;-88
2023/02/15 08:11:50;;;;;;;4.68;4.28;;;;;;;;;;5053960;28;20296;-89
2023/02/15 08:14:35;;;;;;;5.18;4.60;;;;;;;;;;5054238;28;20261;-87
2023/02/15 08:17:05;;;;;;;6.68;5.05;;;;;;;;;;5053904;28;20205;-87
2023/02/15 08:19:43;;;;;;;4.70;4.30;;;;;;;;;;5054422;28;20203;-87
2023/02/15 08:22:15;;;;;;;5.82;5.13;;;;;;;;;;5053740;28;20193;-88
2023/02/15 08:24:42;;;;;;;8.35;5.32;;;;;;;;;;5053269;28;20229;-87
2023/02/15 08:27:12;;;;;;;5.40;4.90;;;;;;;;;;5053079;28;20201;-87
2023/02/15 08:29:41;;;;;;;4.43;3.97;;;;;;;;;;5053106;28;20297;-87
2023/02/15 08:32:11;;;;;;;5.57;4.55;;;;;;;;;;5052789;28;20205;-88
2023/02/15 08:34:42;;;;;;;6.50;5.07;;;;;;;;;;5054777;28;20269;-88
2023/02/15 08:37:10;;;;;;;5.90;5.25;;;;;;;;;;5057331;28;20210;-88
2023/02/15 08:39:37;;;;;;;5.35;4.45;;;;;;;;;;5056882;28;20300;-88
2023/02/15 08:42:05;;;;;;;6.03;5.43;;;;;;;;;;5056867;28;20654;-88
2023/02/15 08:44:33;;;;;;;6.22;5.50;;;;;;;;;;5056822;28;20658;-89
2023/02/15 08:47:03;;;;;;;5.90;5.30;;;;;;;;;;5056558;28;20296;-88
2023/02/15 08:49:31;;;;;;;5.40;4.90;;;;;;;;;;5056684;28;20206;-88
2023/02/15 08:51:59;;;;;;;7.82;5.53;;;;;;;;;;5058121;28;20640;-89
2023/02/15 08:54:27;;;;;;;7.43;5.30;;;;;;;;;;5058239;28;20271;-88
2023/02/15 08:56:54;;;;;;;8.90;6.97;;;;;;;;;;5056107;28;20725;-88
2023/02/15 08:59:23;;;;;;;11.10;7.68;;;;;;;;;;5056311;28;20631;-90
2023/02/15 09:01:53;;;;;;;8.82;6.00;;;;;;;;;;5056604;28;20662;-88
2023/02/15 09:04:23;;;;;;;7.72;6.28;;;;;;;;;;5056287;28;20217;-88
2023/02/15 09:06:51;;;;;;;9.02;6.72;;;;;;;;;;5055754;28;20297;-88
2023/02/15 09:09:20;;;;;;;8.30;6.57;;;;;;;;;;5056432;28;20678;-88
2023/02/15 09:11:49;;;;;;;6.45;4.95;;;;;;;;;;5056463;28;20202;-88
2023/02/15 09:14:20;;;;;;;6.15;5.50;;;;;;;;;;5055869;28;20312;-88
2023/02/15 09:16:51;;;;;;;8.45;6.20;;;;;;;;;;5056057;28;20201;-90
2023/02/15 09:19:23;;;;;;;8.82;7.22;;;;;;;;;;5055975;28;20233;-88
2023/02/15 09:21:51;;;;;;;9.30;7.43;;;;;;;;;;5056522;28;20634;-87
2023/02/15 09:24:19;;;;;;;7.97;6.70;;;;;;;;;;5056267;28;20222;-89
2023/02/15 09:26:49;;;;;;;16.48;7.30;;;;;;;;;;5057244;28;20205;-87
2023/02/15 09:29:18;;;;;;;9.63;6.78;;;;;;;;;;5057316;28;20287;-87
2023/02/15 09:31:48;;;;;;;8.10;6.63;;;;;;;;;;5058075;28;20201;-88
2023/02/15 09:34:17;;;;;;;8.35;6.28;;;;;;;;;;5057775;28;20236;-87
2023/02/15 09:36:47;;;;;;;8.50;6.47;;;;;;;;;;5057952;28;20194;-88
2023/02/15 09:39:18;;;;;;;8.23;6.57;;;;;;;;;;5039598;28;20315;-90
2023/02/15 09:42:26;;;;;;;9.50;7.32;;;;;;;;;;5057019;28;20216;-87
2023/02/15 09:45:25;;;;;;;8.38;6.20;;;;;;;;;;5025391;28;20276;-86
2023/02/15 09:48:12;;;;;;;8.07;6.55;;;;;;;;;;5054323;28;20210;-87
2023/02/15 09:50:51;;;;;;;12.50;8.40;;;;;;;;;;5056223;28;20190;-88
2023/02/15 09:53:37;;;;;;;9.75;7.20;;;;;;;;;;5055682;28;20228;-89
2023/02/15 09:56:11;;;;;;;9.63;7.28;;;;;;;;;;5055464;28;20192;-88
2023/02/15 09:58:48;;;;;;;6.90;5.95;;;;;;;;;;5055876;28;20202;-87
2023/02/15 10:01:22;;;;;;;11.18;7.68;;;;;;;;;;5055304;28;20197;-88
2023/02/15 10:04:15;;;;;;;8.02;6.28;;;;;;;;;;5055541;28;20241;-88
2023/02/15 10:06:49;;;;;;;8.00;6.50;;;;;;;;;;5055787;28;20711;-89
2023/02/15 10:09:50;;;;;;;8.52;6.68;;;;;;;;;;5055268;28;20225;-87
2023/02/15 10:12:48;;;;;;;11.50;7.75;;;;;;;;;;5035361;28;20292;-87
2023/02/15 10:15:41;;;;;;;7.88;6.35;;;;;;;;;;5055532;28;20705;-89
2023/02/15 10:18:33;;;;;;;8.95;5.88;;;;;;;;;;5056570;28;20210;-89
2023/02/15 10:21:09;;;;;;;10.20;7.65;;;;;;;;;;5056864;28;20213;-88
2023/02/15 10:23:52;;;;;;;7.55;5.78;;;;;;;;;;5056642;28;20225;-87
2023/02/15 10:26:23;;;;;;;7.82;6.43;;;;;;;;;;5055385;28;20269;-89
2023/02/15 10:28:53;;;;;;;9.18;6.30;;;;;;;;;;5055080;28;20277;-87
2023/02/15 10:31:27;;;;;;;8.63;6.93;;;;;;;;;;5055577;28;20290;-87
2023/02/15 10:34:16;;;;;;;7.32;6.25;;;;;;;;;;5054963;28;20233;-88
2023/02/15 10:37:18;;;;;;;9.05;7.68;;;;;;;;;;5054706;28;20189;-91
2023/02/15 10:39:56;;;;;;;9.98;6.35;;;;;;;;;;5056884;28;20708;-88
2023/02/15 10:42:35;;;;;;;10.23;7.32;;;;;;;;;;5056758;28;20279;-85
2023/02/15 10:45:20;;;;;;;8.95;7.40;;;;;;;;;;5056192;28;20604;-86
2023/02/15 10:48:12;;;;;;;10.23;7.78;;;;;;;;;;5056027;28;20189;-88
2023/02/15 10:50:51;;;;;;;9.13;6.53;;;;;;;;;;5055674;28;20185;-88
2023/02/15 10:53:49;;;;;;;9.13;8.07;;;;;;;;;;5055710;28;20779;-87
2023/02/15 10:56:21;;;;;;;12.05;8.30;;;;;;;;;;5054878;28;20690;-86
2023/02/15 10:59:20;;;;;;;9.20;6.70;;;;;;;;;;5055052;28;20206;-86
2023/02/15 11:01:54;;;;;;;8.85;6.47;;;;;;;;;;5055395;28;20221;-87
2023/02/15 11:04:54;;;;;;;9.90;7.53;;;;;;;;;;5054934;28;20245;-88
2023/02/15 11:07:25;;;;;;;6.78;5.68;;;;;;;;;;5055625;28;20269;-86
2023/02/15 11:10:54;;;;;;;8.50;6.30;;;;;;;;;;5055807;28;20620;-85
2023/02/15 11:13:27;;;;;;;9.23;7.03;;;;;;;;;;5066230;22;20217;-86
2023/02/15 11:16:01;;;;;;;8.73;7.18;;;;;;;;;;5044168;28;20217;-85
2023/02/15 11:18:33;;;;;;;10.65;7.47;;;;;;;;;;5055240;28;20292;-85
2023/02/15 11:21:14;;;;;;;7.60;6.63;;;;;;;;;;5055409;28;20628;-85
2023/02/15 11:23:45;;;;;;;9.93;8.15;;;;;;;;;;5055160;28;20288;-84
2023/02/15 11:26:20;;;;;;;9.60;7.40;;;;;;;;;;5054658;28;20662;-85
2023/02/15 11:28:55;;;;;;;8.73;7.07;;;;;;;;;;5044460;28;20659;-84
2023/02/15 11:31:31;;;;;;;9.70;7.85;;;;;;;;;;5015974;28;20209;-85
2023/02/15 11:34:03;;;;;;;9.48;8.40;;;;;;;;;;5014204;28;20237;-85
2023/02/15 11:36:35;;;;;;;8.93;7.72;;;;;;;;;;5014735;28;20290;-85
2023/02/15 11:39:06;;;;;;;8.60;7.25;;;;;;;;;;5014223;28;20277;-84
2023/02/15 11:41:37;;;;;;;9.60;7.30;;;;;;;;;;5014705;28;20211;-85
2023/02/15 11:44:12;;;;;;;6.97;6.28;;;;;;;;;;5014178;28;20593;-85
2023/02/15 11:46:40;;;;;;;8.50;7.60;;;;;;;;;;5014883;28;20193;-85
2023/02/15 11:49:23;;;;;;;9.65;7.18;;;;;;;;;;5053863;28;20236;-84
2023/02/15 11:51:51;;;;;;;8.45;7.13;;;;;;;;;;5053993;28;20212;-86
2023/02/15 11:54:19;;;;;;;8.45;7.45;;;;;;;;;;5053584;28;20678;-86
2023/02/15 11:56:47;;;;;;;9.82;8.13;;;;;;;;;;5054164;28;20293;-85
2023/02/15 11:59:25;;;;;;;11.55;7.82;;;;;;;;;;5053840;28;20310;-84
2023/02/15 12:01:54;;;;;;;9.57;8.15;;;;;;;;;;5054554;28;20264;-85
2023/02/15 12:04:26;;;;;;;7.07;6.18;;;;;;;;;;5054690;28;20304;-84
2023/02/15 12:06:58;;;;;;;11.65;8.73;;;;;;;;;;5054391;28;20196;-84
2023/02/15 12:09:33;;;;;;;9.73;8.13;;;;;;;;;;5053566;28;20286;-85
2023/02/15 12:12:25;;;;;;;11.43;9.00;;;;;;;;;;5054038;28;20650;-85
2023/02/15 12:14:54;;;;;;;9.55;7.97;;;;;;;;;;5049745;28;20328;-85
2023/02/15 12:17:25;;;;;;;10.15;8.68;;;;;;;;;;5032913;28;20209;-85
2023/02/15 12:20:01;;;;;;;10.20;7.85;;;;;;;;;;5033799;28;20221;-86
2023/02/15 12:22:31;;;;;;;8.45;7.55;;;;;;;;;;5034205;28;20186;-85
2023/02/15 12:25:21;;;;;;;9.52;7.80;;;;;;;;;;5033837;28;20214;-85
2023/02/15 12:27:57;;;;;;;7.80;6.25;;;;;;;;;;5034462;28;20187;-86
2023/02/15 12:30:31;;;;;;;8.93;7.97;;;;;;;;;;5034648;28;20218;-85
2023/02/15 12:33:09;;;;;;;10.35;7.57;;;;;;;;;;5034879;28;20194;-85
2023/02/15 12:35:43;;;;;;;8.82;7.15;;;;;;;;;;5034660;28;20187;-86
2023/02/15 12:38:25;;;;;;;9.77;8.40;;;;;;;;;;5035291;28;20182;-85
2023/02/15 12:41:00;;;;;;;9.10;8.20;;;;;;;;;;5034953;28;20238;-84
2023/02/15 12:43:31;;;;;;;8.90;7.65;;;;;;;;;;5035496;28;20654;-85
2023/02/15 12:46:22;;;;;;;9.43;8.15;;;;;;;;;;5035566;28;20643;-83
2023/02/15 12:49:08;;;;;;;10.80;7.80;;;;;;;;;;5034512;28;20210;-83
2023/02/15 12:51:47;;;;;;;8.70;6.70;;;;;;;;;;5034243;28;20199;-88
2023/02/15 12:54:35;;;;;;;9.95;7.70;;;;;;;;;;5034066;28;20738;-88
2023/02/15 12:57:25;;;;;;;7.03;6.35;;;;;;;;;;5033136;28;20206;-88
2023/02/15 12:59:55;;;;;;;7.05;5.97;;;;;;;;;;5032138;28;20218;-89
2023/02/15 13:02:28;;;;;;;10.52;8.25;;;;;;;;;;5032164;28;20198;-89
2023/02/15 13:04:58;;;;;;;7.85;6.88;;;;;;;;;;5031440;28;20265;-88
2023/02/15 13:07:32;;;;;;;11.52;8.40;;;;;;;;;;5031209;28;20246;-89
2023/02/15 13:10:00;;;;;;;11.77;8.25;;;;;;;;;;5031018;28;20207;-88
2023/02/15 13:12:31;;;;;;;11.55;8.52;;;;;;;;;;5031757;28;20191;-89
2023/02/15 13:15:02;;;;;;;8.98;7.25;;;;;;;;;;5031869;28;20230;-89
2023/02/15 13:17:34;;;;;;;10.23;8.00;;;;;;;;;;5031378;28;20202;-89
2023/02/15 13:20:10;;;;;;;8.77;7.30;;;;;;;;;;5032104;28;20242;-89
2023/02/15 13:22:42;;;;;;;12.13;9.20;;;;;;;;;;5035542;28;20643;-88
2023/02/15 13:25:15;;;;;;;10.52;8.85;;;;;;;;;;5035447;28;20257;-88
2023/02/15 13:27:44;;;;;;;9.32;7.70;;;;;;;;;;5035996;28;20214;-89
2023/02/15 13:30:28;;;;;;;12.65;9.52;;;;;;;;;;5035575;28;20241;-89
2023/02/15 13:32:59;;;;;;;13.23;9.40;;;;;;;;;;5035384;28;20210;-89
2023/02/15 13:35:33;;;;;;;12.05;8.88;;;;;;;;;;5035664;28;20230;-89
2023/02/15 13:38:14;;;;;;;12.90;9.05;;;;;;;;;;5035319;28;20699;-89
2023/02/15 13:40:49;;;;;;;12.00;9.68;;;;;;;;;;5035885;28;20222;-88
2023/02/15 13:43:30;;;;;;;13.32;10.43;;;;;;;;;;5035184;28;20225;-89
2023/02/15 13:46:14;;;;;;;15.57;11.13;;;;;;;;;;5035340;28;20233;-88
2023/02/15 13:48:48;;;;;;;11.60;9.00;;;;;;;;;;5033635;28;20202;-88
2023/02/15 13:51:25;;;;;;;16.63;10.65;;;;;;;;;;5035160;28;20260;-88
2023/02/15 13:54:29;;;;;;;13.27;9.63;;;;;;;;;;5034387;28;20737;-88
2023/02/15 13:57:20;;;;;;;12.93;9.98;;;;;;;;;;5032166;28;20190;-89
2023/02/15 13:59:59;;;;;;;14.43;10.18;;;;;;;;;;5034865;28;20256;-88
2023/02/15 14:02:58;;;;;;;11.77;9.07;;;;;;;;;;5035077;28;20217;-89
2023/02/15 14:05:38;;;;;;;10.80;8.35;;;;;;;;;;5034413;28;20234;-89
2023/02/15 14:08:14;;;;;;;14.27;9.73;;;;;;;;;;5034711;28;20202;-89
2023/02/15 14:10:55;;;;;;;14.32;9.13;;;;;;;;;;5034785;28;20261;-88
2023/02/15 14:14:10;;;;;;;13.63;9.43;;;;;;;;;;5034408;28;20249;-88
2023/02/15 14:16:46;;;;;;;11.15;8.75;;;;;;;;;;5033855;28;20248;-89
2023/02/15 14:19:21;;;;;;;12.75;9.35;;;;;;;;;;5034410;28;20183;-88
2023/02/15 14:21:52;;;;;;;13.30;9.10;;;;;;;;;;5033844;28;20308;-88
2023/02/15 14:24:30;;;;;;;13.10;8.73;;;;;;;;;;5034216;28;20314;-88
2023/02/15 14:27:10;;;;;;;12.10;9.35;;;;;;;;;;5034494;28;20281;-89
2023/02/15 14:29:50;;;;;;;12.25;8.88;;;;;;;;;;5033772;28;20230;-88
2023/02/15 14:32:27;;;;;;;13.80;9.23;;;;;;;;;;5034552;28;20233;-89
2023/02/15 14:34:57;;;;;;;11.18;8.48;;;;;;;;;;5034485;28;20252;-88
2023/02/15 14:37:43;;;;;;;11.95;9.82;;;;;;;;;;5033828;28;20213;-88
2023/02/15 14:43:16;;;;;;;19.13;10.60;;;;;;;;;;5033805;28;20198;-88
2023/02/15 14:45:53;;;;;;;15.55;11.27;;;;;;;;;;5034137;28;20292;-88
2023/02/15 14:48:26;;;;;;;14.95;10.00;;;;;;;;;;5033435;28;20220;-89
2023/02/15 14:50:54;;;;;;;15.68;10.82;;;;;;;;;;5034178;28;20266;-88
2023/02/15 14:53:39;;;;;;;15.40;10.43;;;;;;;;;;5033850;28;20337;-88
2023/02/15 14:56:23;;;;;;;13.88;9.85;;;;;;;;;;5034356;28;20198;-88
2023/02/15 14:59:17;;;;;;;13.23;9.70;;;;;;;;;;5033968;28;20206;-89
2023/02/15 15:01:58;;;;;;;13.70;9.13;;;;;;;;;;5031336;28;20226;-89
2023/02/15 15:04:31;;;;;;;11.25;9.43;;;;;;;;;;5034446;28;20317;-89
2023/02/15 15:07:09;;;;;;;14.05;10.23;;;;;;;;;;5034014;28;20205;-89
2023/02/15 15:09:39;;;;;;;13.90;11.18;;;;;;;;;;5034391;28;20281;-89
2023/02/15 15:12:39;;;;;;;12.82;9.48;;;;;;;;;;5034024;28;20296;-88
2023/02/15 15:15:11;;;;;;;14.88;10.20;;;;;;;;;;5033089;28;20245;-88
2023/02/15 15:18:00;;;;;;;13.07;10.23;;;;;;;;;;5033079;28;20245;-89
2023/02/15 15:20:47;;;;;;;12.23;9.25;;;;;;;;;;5033916;28;20308;-89
2023/02/15 15:23:42;;;;;;;13.43;9.50;;;;;;;;;;5033583;28;20262;-88
2023/02/15 15:26:28;;;;;;;13.20;9.30;;;;;;;;;;5033701;28;20209;-88
2023/02/15 15:29:00;;;;;;;9.38;7.82;;;;;;;;;;5033063;28;20288;-89
2023/02/15 15:31:38;;;;;;;9.57;7.57;;;;;;;;;;5032792;28;20241;-88
2023/02/15 15:34:32;;;;;;;10.77;8.10;;;;;;;;;;5033396;28;20261;-89
2023/02/15 15:37:41;;;;;;;12.05;8.60;;;;;;;;;;5033156;28;20226;-88
2023/02/15 15:40:53;;;;;;;9.35;7.03;;;;;;;;;;5032975;28;20730;-88
2023/02/15 15:43:53;;;;;;;10.00;8.10;;;;;;;;;;5012546;28;20224;-89
2023/02/15 15:47:27;;;;;;;9.00;6.88;;;;;;;;;;5033166;28;20213;-88
2023/02/15 15:49:57;;;;;;;8.60;6.93;;;;;;;;;;4986065;28;20236;-88
2023/02/15 15:52:25;;;;;;;10.10;7.47;;;;;;;;;;5032849;28;20288;-88
2023/02/15 15:54:56;;;;;;;8.68;6.20;;;;;;;;;;5032983;28;20228;-89
2023/02/15 15:57:29;;;;;;;7.47;6.22;;;;;;;;;;5033046;28;20256;-88
2023/02/15 15:59:58;;;;;;;6.90;6.20;;;;;;;;;;5032665;28;20198;-89
2023/02/15 16:02:28;;;;;;;9.60;7.82;;;;;;;;;;5032492;28;20317;-88